KSOW

Show Low Regional Airport

Show Low, Arizona, USA
METAR KSOW 211955Z AUTO 31009KT 10SM CLR M02/M10 A3008 RMK AO2
Observed Flight Rules
Jan-21 @ 19:55 UTC (34 minutes ago) Visual Flight Rules
Wind Visibility Clouds
310° at 9 knots 10 miles
  • Clear skies
Temperatures Readings
Current -2°C / 28°F
Dewpoint -10°C / 14°F
Humidity 55%
Altimeter 30.08" Hg
Pressure 1019 hPa
Elevation 1954
METAR KSOW 211955Z AUTO 31009KT 10SM CLR M02/M10 A3008 RMK AO2
Observed Flight Rules
Jan-21 @ 19:55 UTC
(34 minutes ago)
VFR
Wind Visibility
310° at 9 knots 10 miles
Clouds
  • Clear skies
Temperature Dewpoint
-2°C / 28°F -10°C / 14°F
Humidity Altimeter Pressure
55% 30.08" Hg 1019 hPa